sensor_id;sensor_type;location;lat;lon;timestamp;pressure;altitude;pressure_sealevel;temperature;humidity
63343;BME280;49465;57.664;39.686;2023-02-20T00:01:46;98836.38;;;-3.01;46.29
63343;BME280;49465;57.664;39.686;2023-02-20T00:04:13;98840.75;;;-3.04;45.90
63343;BME280;49465;57.664;39.686;2023-02-20T00:06:39;98834.97;;;-3.09;46.64
63343;BME280;49465;57.664;39.686;2023-02-20T00:09:08;98836.03;;;-3.16;45.73
63343;BME280;49465;57.664;39.686;2023-02-20T00:11:39;98832.88;;;-4.12;47.19
63343;BME280;49465;57.664;39.686;2023-02-20T00:14:08;98842.19;;;-3.22;46.75
63343;BME280;49465;57.664;39.686;2023-02-20T00:16:34;98839.19;;;-3.08;46.90
63343;BME280;49465;57.664;39.686;2023-02-20T00:19:01;98845.22;;;-3.09;46.28
63343;BME280;49465;57.664;39.686;2023-02-20T00:21:27;98851.25;;;-3.12;46.21
63343;BME280;49465;57.664;39.686;2023-02-20T00:23:54;98852.00;;;-3.08;46.46
63343;BME280;49465;57.664;39.686;2023-02-20T00:26:23;98850.44;;;-3.12;46.53
63343;BME280;49465;57.664;39.686;2023-02-20T00:28:49;98858.03;;;-3.09;46.74
63343;BME280;49465;57.664;39.686;2023-02-20T00:31:17;98854.16;;;-3.23;46.47
63343;BME280;49465;57.664;39.686;2023-02-20T00:33:44;98854.16;;;-3.23;46.07
63343;BME280;49465;57.664;39.686;2023-02-20T00:36:18;98853.88;;;-3.13;46.34
63343;BME280;49465;57.664;39.686;2023-02-20T00:38:46;98853.69;;;-3.07;46.38
63343;BME280;49465;57.664;39.686;2023-02-20T00:41:17;98851.16;;;-3.09;46.03
63343;BME280;49465;57.664;39.686;2023-02-20T00:43:46;98847.97;;;-3.15;46.51
63343;BME280;49465;57.664;39.686;2023-02-20T00:46:13;98839.53;;;-3.19;46.63
63343;BME280;49465;57.664;39.686;2023-02-20T00:48:40;98845.50;;;-3.19;46.22
63343;BME280;49465;57.664;39.686;2023-02-20T00:51:06;98851.44;;;-3.18;46.07
63343;BME280;49465;57.664;39.686;2023-02-20T00:53:36;98846.38;;;-3.20;46.46
63343;BME280;49465;57.664;39.686;2023-02-20T00:56:02;98843.88;;;-3.21;46.28
63343;BME280;49465;57.664;39.686;2023-02-20T00:58:28;98840.66;;;-3.28;46.08
63343;BME280;49465;57.664;39.686;2023-02-20T01:00:57;98841.63;;;-3.32;46.03
63343;BME280;49465;57.664;39.686;2023-02-20T01:03:23;98847.41;;;-3.25;46.33
63343;BME280;49465;57.664;39.686;2023-02-20T01:05:52;98843.16;;;-3.26;45.76
63343;BME280;49465;57.664;39.686;2023-02-20T01:08:18;98846.56;;;-3.26;46.22
63343;BME280;49465;57.664;39.686;2023-02-20T01:10:48;98843.13;;;-3.25;46.32
63343;BME280;49465;57.664;39.686;2023-02-20T01:13:19;98844.97;;;-3.30;45.90
63343;BME280;49465;57.664;39.686;2023-02-20T01:15:45;98836.28;;;-3.52;45.53
63343;BME280;49465;57.664;39.686;2023-02-20T01:18:11;98838.47;;;-3.40;46.84
63343;BME280;49465;57.664;39.686;2023-02-20T01:20:40;98848.06;;;-3.47;45.67
63343;BME280;49465;57.664;39.686;2023-02-20T01:23:07;98846.44;;;-3.49;46.47
63343;BME280;49465;57.664;39.686;2023-02-20T01:25:37;98847.13;;;-3.44;46.54
63343;BME280;49465;57.664;39.686;2023-02-20T01:28:04;98841.06;;;-3.42;46.03
63343;BME280;49465;57.664;39.686;2023-02-20T01:30:31;98839.59;;;-3.49;46.21
63343;BME280;49465;57.664;39.686;2023-02-20T01:33:03;98846.47;;;-3.51;45.87
63343;BME280;49465;57.664;39.686;2023-02-20T01:35:29;98843.81;;;-3.48;46.06
63343;BME280;49465;57.664;39.686;2023-02-20T01:38:00;98842.88;;;-3.45;45.71
63343;BME280;49465;57.664;39.686;2023-02-20T01:40:31;98845.06;;;-4.53;46.84
63343;BME280;49465;57.664;39.686;2023-02-20T01:42:59;98845.22;;;-3.66;46.62
63343;BME280;49465;57.664;39.686;2023-02-20T01:45:34;98848.56;;;-3.64;45.97
63343;BME280;49465;57.664;39.686;2023-02-20T01:48:22;98850.13;;;-3.58;46.43
63343;BME280;49465;57.664;39.686;2023-02-20T01:50:56;98847.63;;;-3.61;45.85
63343;BME280;49465;57.664;39.686;2023-02-20T01:53:29;98848.38;;;-3.58;46.50
63343;BME280;49465;57.664;39.686;2023-02-20T01:56:06;98846.72;;;-3.59;46.06
63343;BME280;49465;57.664;39.686;2023-02-20T01:58:44;98851.97;;;-3.63;46.31
63343;BME280;49465;57.664;39.686;2023-02-20T02:01:14;98853.91;;;-3.71;46.08
63343;BME280;49465;57.664;39.686;2023-02-20T02:03:45;98854.94;;;-3.77;46.75
63343;BME280;49465;57.664;39.686;2023-02-20T02:06:16;98852.22;;;-3.72;46.64
63343;BME280;49465;57.664;39.686;2023-02-20T02:08:48;98854.56;;;-3.65;46.53
63343;BME280;49465;57.664;39.686;2023-02-20T02:11:19;98856.66;;;-3.78;45.91
63343;BME280;49465;57.664;39.686;2023-02-20T02:13:48;98861.69;;;-3.74;46.53
63343;BME280;49465;57.664;39.686;2023-02-20T02:16:29;98855.09;;;-3.83;45.64
63343;BME280;49465;57.664;39.686;2023-02-20T02:30:45;98860.41;;;-3.89;46.13
63343;BME280;49465;57.664;39.686;2023-02-20T02:41:43;98872.41;;;-3.91;46.19
63343;BME280;49465;57.664;39.686;2023-02-20T02:44:50;98883.09;;;-4.07;46.45
63343;BME280;49465;57.664;39.686;2023-02-20T02:50:31;98887.38;;;-4.07;45.40
63343;BME280;49465;57.664;39.686;2023-02-20T02:53:07;98890.03;;;-4.12;45.75
63343;BME280;49465;57.664;39.686;2023-02-20T02:55:34;98884.13;;;-4.14;45.40
63343;BME280;49465;57.664;39.686;2023-02-20T02:58:02;98883.09;;;-4.07;45.89
63343;BME280;49465;57.664;39.686;2023-02-20T03:00:36;98892.69;;;-4.15;45.52
63343;BME280;49465;57.664;39.686;2023-02-20T03:03:36;98881.97;;;-4.29;46.44
63343;BME280;49465;57.664;39.686;2023-02-20T03:06:19;98886.28;;;-4.31;46.19
63343;BME280;49465;57.664;39.686;2023-02-20T03:08:58;98888.94;;;-4.34;45.84
63343;BME280;49465;57.664;39.686;2023-02-20T03:11:31;98887.78;;;-4.23;45.66
63343;BME280;49465;57.664;39.686;2023-02-20T03:19:50;98890.50;;;-4.29;45.56
63343;BME280;49465;57.664;39.686;2023-02-20T03:22:55;98890.00;;;-4.43;45.24
63343;BME280;49465;57.664;39.686;2023-02-20T03:25:33;98891.81;;;-4.47;45.85
63343;BME280;49465;57.664;39.686;2023-02-20T03:28:26;98902.97;;;-4.49;45.62
63343;BME280;49465;57.664;39.686;2023-02-20T03:31:07;98894.13;;;-4.38;45.09
63343;BME280;49465;57.664;39.686;2023-02-20T03:36:46;98901.13;;;-4.44;45.32
63343;BME280;49465;57.664;39.686;2023-02-20T03:39:39;98896.84;;;-4.44;45.78
63343;BME280;49465;57.664;39.686;2023-02-20T03:42:33;98894.50;;;-4.53;45.58
63343;BME280;49465;57.664;39.686;2023-02-20T03:45:23;98894.44;;;-4.50;45.81
63343;BME280;49465;57.664;39.686;2023-02-20T03:47:57;98906.41;;;-4.50;45.01
63343;BME280;49465;57.664;39.686;2023-02-20T03:50:25;98897.16;;;-4.56;46.02
63343;BME280;49465;57.664;39.686;2023-02-20T03:53:10;98901.47;;;-4.58;45.16
63343;BME280;49465;57.664;39.686;2023-02-20T03:55:36;98900.56;;;-4.55;45.14
63343;BME280;49465;57.664;39.686;2023-02-20T03:58:06;98904.13;;;-4.63;44.96
63343;BME280;49465;57.664;39.686;2023-02-20T04:00:41;98899.13;;;-4.66;45.07
63343;BME280;49465;57.664;39.686;2023-02-20T04:03:22;98903.31;;;-4.63;45.61
63343;BME280;49465;57.664;39.686;2023-02-20T04:05:53;98908.53;;;-4.68;45.33
63343;BME280;49465;57.664;39.686;2023-02-20T04:08:37;98911.31;;;-4.77;45.51
63343;BME280;49465;57.664;39.686;2023-02-20T04:13:44;98913.75;;;-4.72;45.80
63343;BME280;49465;57.664;39.686;2023-02-20T04:16:12;98913.84;;;-4.75;45.48
63343;BME280;49465;57.664;39.686;2023-02-20T04:18:41;98910.38;;;-4.74;46.01
63343;BME280;49465;57.664;39.686;2023-02-20T04:21:20;98914.69;;;-4.77;45.87
63343;BME280;49465;57.664;39.686;2023-02-20T04:23:56;98901.06;;;-4.75;45.77
63343;BME280;49465;57.664;39.686;2023-02-20T04:26:27;98901.09;;;-4.77;45.78
63343;BME280;49465;57.664;39.686;2023-02-20T04:28:53;98898.69;;;-4.83;45.35
63343;BME280;49465;57.664;39.686;2023-02-20T04:31:23;98907.19;;;-4.83;45.68
63343;BME280;49465;57.664;39.686;2023-02-20T04:33:49;98898.72;;;-4.85;45.86
63343;BME280;49465;57.664;39.686;2023-02-20T04:36:22;98907.28;;;-4.86;45.77
63343;BME280;49465;57.664;39.686;2023-02-20T04:38:52;98902.38;;;-4.95;46.41
63343;BME280;49465;57.664;39.686;2023-02-20T04:41:18;98907.81;;;-5.09;46.17
63343;BME280;49465;57.664;39.686;2023-02-20T04:43:44;98916.06;;;-4.98;46.06
63343;BME280;49465;57.664;39.686;2023-02-20T04:46:22;98916.00;;;-4.96;45.87
63343;BME280;49465;57.664;39.686;2023-02-20T04:48:51;98912.59;;;-4.95;45.97
63343;BME280;49465;57.664;39.686;2023-02-20T04:51:17;98908.56;;;-5.05;45.79
63343;BME280;49465;57.664;39.686;2023-02-20T04:53:44;98905.16;;;-5.06;46.15
63343;BME280;49465;57.664;39.686;2023-02-20T04:56:10;98909.53;;;-5.09;46.15
63343;BME280;49465;57.664;39.686;2023-02-20T04:58:49;98910.53;;;-5.17;46.32
63343;BME280;49465;57.664;39.686;2023-02-20T05:01:17;98912.94;;;-5.10;45.98
63343;BME280;49465;57.664;39.686;2023-02-20T05:03:43;98919.69;;;-5.08;46.02
63343;BME280;49465;57.664;39.686;2023-02-20T05:06:10;98923.19;;;-5.12;46.07
63343;BME280;49465;57.664;39.686;2023-02-20T05:08:36;98920.59;;;-5.09;45.63
63343;BME280;49465;57.664;39.686;2023-02-20T05:11:08;98916.44;;;-5.14;45.86
63343;BME280;49465;57.664;39.686;2023-02-20T05:13:34;98929.41;;;-5.24;46.20
63343;BME280;49465;57.664;39.686;2023-02-20T05:16:03;98925.19;;;-5.25;46.25
63343;BME280;49465;57.664;39.686;2023-02-20T05:18:35;98925.22;;;-5.26;45.53
63343;BME280;49465;57.664;39.686;2023-02-20T05:21:04;98926.06;;;-5.26;45.33
63343;BME280;49465;57.664;39.686;2023-02-20T05:23:49;98926.09;;;-5.27;45.76
63343;BME280;49465;57.664;39.686;2023-02-20T05:26:20;98929.47;;;-5.25;46.10
63343;BME280;49465;57.664;39.686;2023-02-20T05:28:47;98929.53;;;-5.28;45.71
63343;BME280;49465;57.664;39.686;2023-02-20T05:31:13;98936.38;;;-5.29;45.94
63343;BME280;49465;57.664;39.686;2023-02-20T05:33:43;98928.75;;;-5.32;46.09
63343;BME280;49465;57.664;39.686;2023-02-20T05:36:09;98932.38;;;-5.42;45.88
63343;BME280;49465;57.664;39.686;2023-02-20T05:38:36;98943.44;;;-5.42;45.20
63343;BME280;49465;57.664;39.686;2023-02-20T05:41:02;98935.78;;;-5.43;45.70
63343;BME280;49465;57.664;39.686;2023-02-20T05:43:28;98933.28;;;-5.45;46.12
63343;BME280;49465;57.664;39.686;2023-02-20T05:45:57;98929.16;;;-5.50;45.38
63343;BME280;49465;57.664;39.686;2023-02-20T05:48:24;98924.81;;;-5.47;45.81
63343;BME280;49465;57.664;39.686;2023-02-20T05:50:50;98924.03;;;-5.50;46.17
63343;BME280;49465;57.664;39.686;2023-02-20T05:53:19;98924.19;;;-5.57;46.03
63343;BME280;49465;57.664;39.686;2023-02-20T05:55:46;98931.84;;;-5.57;45.24
63343;BME280;49465;57.664;39.686;2023-02-20T05:58:12;98931.75;;;-5.53;44.65
63343;BME280;49465;57.664;39.686;2023-02-20T06:00:39;98922.34;;;-5.51;44.72
63343;BME280;49465;57.664;39.686;2023-02-20T06:03:08;98926.59;;;-5.50;44.94
63343;BME280;49465;57.664;39.686;2023-02-20T06:05:35;98937.59;;;-5.47;45.67
63343;BME280;49465;57.664;39.686;2023-02-20T06:08:01;98935.13;;;-5.51;45.03
63343;BME280;49465;57.664;39.686;2023-02-20T06:10:33;98929.97;;;-5.48;45.22
63343;BME280;49465;57.664;39.686;2023-02-20T06:13:00;98934.28;;;-5.52;44.87
63343;BME280;49465;57.664;39.686;2023-02-20T06:15:28;98931.78;;;-5.55;45.34
63343;BME280;49465;57.664;39.686;2023-02-20T06:17:55;98929.06;;;-5.47;44.94
63343;BME280;49465;57.664;39.686;2023-02-20T06:20:21;98927.47;;;-5.53;45.92
63343;BME280;49465;57.664;39.686;2023-02-20T06:22:48;98934.13;;;-5.44;46.25
63343;BME280;49465;57.664;39.686;2023-02-20T06:25:22;98939.16;;;-5.41;45.90
63343;BME280;49465;57.664;39.686;2023-02-20T06:27:48;98937.31;;;-5.33;45.85
63343;BME280;49465;57.664;39.686;2023-02-20T06:30:17;98930.56;;;-5.37;45.99
63343;BME280;49465;57.664;39.686;2023-02-20T06:32:46;98933.00;;;-5.31;46.24
63343;BME280;49465;57.664;39.686;2023-02-20T06:35:15;98936.31;;;-5.27;46.16
63343;BME280;49465;57.664;39.686;2023-02-20T06:37:43;98936.13;;;-5.20;46.15
63343;BME280;49465;57.664;39.686;2023-02-20T06:40:13;98937.97;;;-5.25;46.64
63343;BME280;49465;57.664;39.686;2023-02-20T06:42:40;98934.31;;;-5.13;46.33
63343;BME280;49465;57.664;39.686;2023-02-20T06:45:06;98930.94;;;-5.15;45.47
63343;BME280;49465;57.664;39.686;2023-02-20T06:47:39;98928.06;;;-5.01;46.58
63343;BME280;49465;57.664;39.686;2023-02-20T06:50:08;98936.56;;;-4.99;46.66
63343;BME280;49465;57.664;39.686;2023-02-20T06:52:40;98944.09;;;-4.94;46.54
63343;BME280;49465;57.664;39.686;2023-02-20T06:55:10;98939.72;;;-4.88;46.67
63343;BME280;49465;57.664;39.686;2023-02-20T06:57:39;98930.28;;;-4.86;47.14
63343;BME280;49465;57.664;39.686;2023-02-20T07:00:09;98935.84;;;-4.68;46.59
63343;BME280;49465;57.664;39.686;2023-02-20T07:02:38;98930.47;;;-4.58;46.19
63343;BME280;49465;57.664;39.686;2023-02-20T07:05:07;98932.84;;;-4.51;44.52
63343;BME280;49465;57.664;39.686;2023-02-20T07:07:38;98936.84;;;-4.40;46.34
63343;BME280;49465;57.664;39.686;2023-02-20T07:10:10;98924.69;;;-4.31;46.58
63343;BME280;49465;57.664;39.686;2023-02-20T07:12:39;98933.09;;;-4.26;46.28
63343;BME280;49465;57.664;39.686;2023-02-20T07:15:06;98932.16;;;-4.24;46.59
63343;BME280;49465;57.664;39.686;2023-02-20T07:17:35;98935.47;;;-4.20;46.96
63343;BME280;49465;57.664;39.686;2023-02-20T07:20:04;98929.31;;;-4.11;47.14
63343;BME280;49465;57.664;39.686;2023-02-20T07:22:37;98933.19;;;-3.98;46.89
63343;BME280;49465;57.664;39.686;2023-02-20T07:25:06;98929.59;;;-3.91;46.73
63343;BME280;49465;57.664;39.686;2023-02-20T07:27:35;98933.56;;;-4.12;47.94
63343;BME280;49465;57.664;39.686;2023-02-20T07:30:02;98937.56;;;-4.02;47.65
63343;BME280;49465;57.664;39.686;2023-02-20T07:32:38;98946.44;;;-3.82;47.55
63343;BME280;49465;57.664;39.686;2023-02-20T07:35:08;98943.53;;;-3.70;46.98
63343;BME280;49465;57.664;39.686;2023-02-20T07:37:37;98941.78;;;-3.68;47.00
63343;BME280;49465;57.664;39.686;2023-02-20T07:40:06;98946.09;;;-3.70;46.48
63343;BME280;49465;57.664;39.686;2023-02-20T07:42:36;98949.28;;;-3.62;47.19
63343;BME280;49465;57.664;39.686;2023-02-20T07:45:05;98939.78;;;-3.58;46.78
63343;BME280;49465;57.664;39.686;2023-02-20T07:47:32;98937.28;;;-3.60;45.80
63343;BME280;49465;57.664;39.686;2023-02-20T07:50:18;98937.16;;;-4.53;44.21
63343;BME280;49465;57.664;39.686;2023-02-20T07:52:48;98936.06;;;-3.78;46.08
63343;BME280;49465;57.664;39.686;2023-02-20T07:55:20;98931.72;;;-3.74;47.39
63343;BME280;49465;57.664;39.686;2023-02-20T07:57:51;98933.78;;;-3.57;47.04
63343;BME280;49465;57.664;39.686;2023-02-20T08:00:25;98938.75;;;-4.48;44.50
63343;BME280;49465;57.664;39.686;2023-02-20T08:03:00;98929.03;;;-3.71;46.10
63343;BME280;49465;57.664;39.686;2023-02-20T08:05:27;98941.78;;;-3.68;47.26
63343;BME280;49465;57.664;39.686;2023-02-20T08:07:56;98934.13;;;-3.69;47.50
63343;BME280;49465;57.664;39.686;2023-02-20T08:10:26;98928.94;;;-3.66;47.10
63343;BME280;49465;57.664;39.686;2023-02-20T08:12:54;98943.13;;;-3.54;47.68
63343;BME280;49465;57.664;39.686;2023-02-20T08:15:29;98944.66;;;-3.49;47.74
63343;BME280;49465;57.664;39.686;2023-02-20T08:17:58;98930.19;;;-3.51;46.32
63343;BME280;49465;57.664;39.686;2023-02-20T08:20:32;98940.28;;;-3.45;47.45
63343;BME280;49465;57.664;39.686;2023-02-20T08:23:04;98942.03;;;-3.47;47.42
63343;BME280;49465;57.664;39.686;2023-02-20T08:25:34;98933.47;;;-3.46;47.35
63343;BME280;49465;57.664;39.686;2023-02-20T08:28:06;98935.09;;;-3.44;47.55
63343;BME280;49465;57.664;39.686;2023-02-20T08:30:41;98934.25;;;-3.43;47.37
63343;BME280;49465;57.664;39.686;2023-02-20T08:33:10;98930.69;;;-3.39;46.07
63343;BME280;49465;57.664;39.686;2023-02-20T08:35:43;98937.63;;;-3.42;46.87
63343;BME280;49465;57.664;39.686;2023-02-20T08:38:31;98943.41;;;-3.35;44.24
63343;BME280;49465;57.664;39.686;2023-02-20T08:41:12;98930.41;;;-3.29;46.11
63343;BME280;49465;57.664;39.686;2023-02-20T08:43:39;98930.41;;;-3.29;46.94
63343;BME280;49465;57.664;39.686;2023-02-20T08:46:06;98934.66;;;-3.28;46.32
63343;BME280;49465;57.664;39.686;2023-02-20T08:48:34;98938.75;;;-3.21;46.53
63343;BME280;49465;57.664;39.686;2023-02-20T08:51:01;98932.06;;;-3.27;44.41
63343;BME280;49465;57.664;39.686;2023-02-20T08:53:31;98946.88;;;-3.36;43.01
63343;BME280;49465;57.664;39.686;2023-02-20T08:56:01;98935.66;;;-4.26;44.46
63343;BME280;49465;57.664;39.686;2023-02-20T08:58:32;98940.78;;;-3.32;46.53
63343;BME280;49465;57.664;39.686;2023-02-20T09:01:01;98941.94;;;-3.43;46.80
63343;BME280;49465;57.664;39.686;2023-02-20T09:03:34;98940.63;;;-3.28;47.09
63343;BME280;49465;57.664;39.686;2023-02-20T09:06:06;98940.53;;;-3.25;47.00
63343;BME280;49465;57.664;39.686;2023-02-20T09:08:37;98934.59;;;-3.25;43.37
63343;BME280;49465;57.664;39.686;2023-02-20T09:11:06;98940.28;;;-3.15;45.98
63343;BME280;49465;57.664;39.686;2023-02-20T09:13:44;98940.09;;;-3.09;46.73
63343;BME280;49465;57.664;39.686;2023-02-20T09:16:12;98925.97;;;-4.15;44.11
63343;BME280;49465;57.664;39.686;2023-02-20T09:18:43;98932.19;;;-3.31;46.62
63343;BME280;49465;57.664;39.686;2023-02-20T09:21:14;98932.72;;;-3.20;46.34
63343;BME280;49465;57.664;39.686;2023-02-20T09:23:42;98932.47;;;-3.12;46.04
63343;BME280;49465;57.664;39.686;2023-02-20T09:26:19;98925.69;;;-3.13;47.00
63343;BME280;49465;57.664;39.686;2023-02-20T09:28:48;98921.69;;;-4.14;44.30
63343;BME280;49465;57.664;39.686;2023-02-20T09:31:15;98921.84;;;-3.28;45.99
63343;BME280;49465;57.664;39.686;2023-02-20T09:33:45;98923.19;;;-3.16;46.58
63343;BME280;49465;57.664;39.686;2023-02-20T09:36:14;98929.63;;;-3.03;46.41
63343;BME280;49465;57.664;39.686;2023-02-20T09:38:43;98925.19;;;-2.98;46.60
63343;BME280;49465;57.664;39.686;2023-02-20T09:44:20;98912.63;;;-3.06;46.52
63343;BME280;49465;57.664;39.686;2023-02-20T09:46:55;98911.97;;;-3.12;46.96
63343;BME280;49465;57.664;39.686;2023-02-20T09:49:35;98904.28;;;-3.12;47.14
63343;BME280;49465;57.664;39.686;2023-02-20T09:52:11;98899.84;;;-3.07;47.11
63343;BME280;49465;57.664;39.686;2023-02-20T09:54:57;98906.53;;;-3.02;46.60
63343;BME280;49465;57.664;39.686;2023-02-20T09:57:34;98897.09;;;-3.01;46.10
63343;BME280;49465;57.664;39.686;2023-02-20T10:00:20;98908.03;;;-3.24;47.35
63343;BME280;49465;57.664;39.686;2023-02-20T10:05:47;98906.44;;;-3.00;47.26
63343;BME280;49465;57.664;39.686;2023-02-20T10:08:20;98897.88;;;-2.99;46.97
63343;BME280;49465;57.664;39.686;2023-02-20T10:10:49;98891.75;;;-2.95;46.87
63343;BME280;49465;57.664;39.686;2023-02-20T10:13:37;98891.84;;;-2.98;46.61
63343;BME280;49465;57.664;39.686;2023-02-20T10:19:01;98886.69;;;-2.96;46.53
63343;BME280;49465;57.664;39.686;2023-02-20T10:27:52;98889.47;;;-3.04;47.23
63343;BME280;49465;57.664;39.686;2023-02-20T10:36:22;98879.53;;;-2.87;44.77
63343;BME280;49465;57.664;39.686;2023-02-20T10:39:07;98876.41;;;-2.96;46.82
63343;BME280;49465;57.664;39.686;2023-02-20T10:50:00;98877.25;;;-2.96;46.96
63343;BME280;49465;57.664;39.686;2023-02-20T10:52:38;98873.81;;;-2.95;46.95
63343;BME280;49465;57.664;39.686;2023-02-20T10:55:17;98870.25;;;-2.91;47.02
63343;BME280;49465;57.664;39.686;2023-02-20T10:58:01;98870.41;;;-2.95;47.15
63343;BME280;49465;57.664;39.686;2023-02-20T11:00:45;98874.00;;;-3.01;47.12
63343;BME280;49465;57.664;39.686;2023-02-20T11:03:44;98866.19;;;-2.98;47.25
63343;BME280;49465;57.664;39.686;2023-02-20T11:06:19;98865.09;;;-2.89;47.04
63343;BME280;49465;57.664;39.686;2023-02-20T11:08:49;98871.84;;;-2.87;45.14
63343;BME280;49465;57.664;39.686;2023-02-20T11:11:23;98867.59;;;-2.88;45.28
63343;BME280;49465;57.664;39.686;2023-02-20T11:13:53;98868.41;;;-2.86;47.04
63343;BME280;49465;57.664;39.686;2023-02-20T11:17:04;98867.25;;;-2.77;46.04
63343;BME280;49465;57.664;39.686;2023-02-20T11:19:45;98866.50;;;-2.81;47.17
63343;BME280;49465;57.664;39.686;2023-02-20T11:22:18;98858.00;;;-2.83;45.66
63343;BME280;49465;57.664;39.686;2023-02-20T11:28:22;98861.00;;;-2.68;46.94
63343;BME280;49465;57.664;39.686;2023-02-20T11:31:02;98856.00;;;-2.73;46.84
63343;BME280;49465;57.664;39.686;2023-02-20T11:33:45;98863.44;;;-2.65;47.30
63343;BME280;49465;57.664;39.686;2023-02-20T11:36:22;98866.94;;;-2.68;46.82
63343;BME280;49465;57.664;39.686;2023-02-20T11:39:03;98862.22;;;-2.55;47.26
63343;BME280;49465;57.664;39.686;2023-02-20T11:41:41;98859.53;;;-2.50;47.09
63343;BME280;49465;57.664;39.686;2023-02-20T11:44:23;98858.78;;;-2.54;47.00
63343;BME280;49465;57.664;39.686;2023-02-20T11:47:24;98860.28;;;-2.47;46.77
63343;BME280;49465;57.664;39.686;2023-02-20T11:53:01;98855.75;;;-2.40;47.06
63343;BME280;49465;57.664;39.686;2023-02-20T11:55:33;98858.16;;;-2.35;46.79
63343;BME280;49465;57.664;39.686;2023-02-20T11:58:01;98859.53;;;-2.25;46.33
63343;BME280;49465;57.664;39.686;2023-02-20T12:00:48;98847.41;;;-2.22;47.05
63343;BME280;49465;57.664;39.686;2023-02-20T12:09:01;98847.81;;;-2.09;46.61
63343;BME280;49465;57.664;39.686;2023-02-20T12:11:28;98844.25;;;-2.05;46.43
63343;BME280;49465;57.664;39.686;2023-02-20T12:13:58;98840.72;;;-2.02;44.04
63343;BME280;49465;57.664;39.686;2023-02-20T12:22:37;98829.09;;;-1.89;44.57
63343;BME280;49465;57.664;39.686;2023-02-20T12:31:03;98829.38;;;-1.73;45.49
63343;BME280;49465;57.664;39.686;2023-02-20T12:37:08;98838.31;;;-2.30;43.52
63343;BME280;49465;57.664;39.686;2023-02-20T12:42:35;98832.63;;;-1.68;44.22
63343;BME280;49465;57.664;39.686;2023-02-20T12:45:26;98833.22;;;-1.61;44.35
63343;BME280;49465;57.664;39.686;2023-02-20T12:50:58;98820.13;;;-1.55;45.68
63343;BME280;49465;57.664;39.686;2023-02-20T13:01:41;98822.59;;;-1.52;46.21
63343;BME280;49465;57.664;39.686;2023-02-20T13:04:41;98822.63;;;-1.53;46.54
63343;BME280;49465;57.664;39.686;2023-02-20T13:07:20;98823.59;;;-1.56;46.75
63343;BME280;49465;57.664;39.686;2023-02-20T13:10:02;98824.38;;;-2.23;43.56
63343;BME280;49465;57.664;39.686;2023-02-20T13:12:29;98825.78;;;-1.69;44.76
63343;BME280;49465;57.664;39.686;2023-02-20T13:20:21;98816.91;;;-2.06;43.16
63343;BME280;49465;57.664;39.686;2023-02-20T13:23:28;98819.63;;;-1.65;45.46
63343;BME280;49465;57.664;39.686;2023-02-20T13:25:55;98822.69;;;-1.55;45.57
63343;BME280;49465;57.664;39.686;2023-02-20T13:28:38;98834.59;;;-1.52;45.12
63343;BME280;49465;57.664;39.686;2023-02-20T13:31:24;98838.06;;;-1.53;46.00
63343;BME280;49465;57.664;39.686;2023-02-20T13:36:52;98824.59;;;-2.54;44.16
63343;BME280;49465;57.664;39.686;2023-02-20T13:52:37;98841.84;;;-1.62;46.12
63343;BME280;49465;57.664;39.686;2023-02-20T13:55:25;98846.16;;;-1.63;45.87
63343;BME280;49465;57.664;39.686;2023-02-20T14:03:12;98828.31;;;-1.67;45.71
63343;BME280;49465;57.664;39.686;2023-02-20T14:05:59;98826.66;;;-1.68;46.13
63343;BME280;49465;57.664;39.686;2023-02-20T14:08:25;98819.22;;;-1.76;45.40
63343;BME280;49465;57.664;39.686;2023-02-20T14:10:57;98816.94;;;-1.84;46.19
63343;BME280;49465;57.664;39.686;2023-02-20T14:13:28;98812.19;;;-1.94;45.71
63343;BME280;49465;57.664;39.686;2023-02-20T14:15:57;98813.09;;;-2.94;43.46
63343;BME280;49465;57.664;39.686;2023-02-20T14:18:34;98817.09;;;-2.12;45.22
63343;BME280;49465;57.664;39.686;2023-02-20T14:21:19;98816.75;;;-2.03;45.22
63343;BME280;49465;57.664;39.686;2023-02-20T14:23:51;98815.88;;;-2.02;45.75
63343;BME280;49465;57.664;39.686;2023-02-20T14:26:30;98820.13;;;-2.01;45.19
63343;BME280;49465;57.664;39.686;2023-02-20T14:28:58;98818.59;;;-2.06;45.80
63343;BME280;49465;57.664;39.686;2023-02-20T14:31:33;98825.56;;;-2.10;45.87
63343;BME280;49465;57.664;39.686;2023-02-20T14:34:06;98819.03;;;-3.19;43.20
63343;BME280;49465;57.664;39.686;2023-02-20T14:36:49;98814.13;;;-3.27;43.37
63343;BME280;49465;57.664;39.686;2023-02-20T14:42:17;98825.69;;;-2.36;45.09
63343;BME280;49465;57.664;39.686;2023-02-20T14:45:12;98825.63;;;-2.35;45.40
63343;BME280;49465;57.664;39.686;2023-02-20T14:47:51;98823.13;;;-2.36;44.77
63343;BME280;49465;57.664;39.686;2023-02-20T14:50:23;98825.00;;;-2.42;44.71
63343;BME280;49465;57.664;39.686;2023-02-20T14:55:35;98819.28;;;-2.50;43.70
63343;BME280;49465;57.664;39.686;2023-02-20T14:58:17;98816.94;;;-2.56;43.59
63343;BME280;49465;57.664;39.686;2023-02-20T15:00:47;98818.78;;;-2.60;44.91
63343;BME280;49465;57.664;39.686;2023-02-20T15:03:36;98815.50;;;-2.65;44.23
63343;BME280;49465;57.664;39.686;2023-02-20T15:06:13;98817.41;;;-2.70;44.44
63343;BME280;49465;57.664;39.686;2023-02-20T15:08:43;98814.97;;;-2.74;45.08
63343;BME280;49465;57.664;39.686;2023-02-20T15:11:15;98810.06;;;-2.81;44.96
63343;BME280;49465;57.664;39.686;2023-02-20T15:13:47;98808.53;;;-2.86;45.55
63343;BME280;49465;57.664;39.686;2023-02-20T15:16:21;98809.59;;;-2.92;45.53
63343;BME280;49465;57.664;39.686;2023-02-20T15:18:52;98813.94;;;-2.94;45.18
63343;BME280;49465;57.664;39.686;2023-02-20T15:26:53;98810.06;;;-3.06;45.27
63343;BME280;49465;57.664;39.686;2023-02-20T15:29:25;98802.53;;;-3.12;45.50
63343;BME280;49465;57.664;39.686;2023-02-20T15:31:57;98800.97;;;-3.16;45.06
63343;BME280;49465;57.664;39.686;2023-02-20T15:34:35;98794.25;;;-3.20;45.17
63343;BME280;49465;57.664;39.686;2023-02-20T15:37:26;98791.06;;;-3.27;45.63
63343;BME280;49465;57.664;39.686;2023-02-20T15:39:53;98790.47;;;-3.35;45.31
63343;BME280;49465;57.664;39.686;2023-02-20T15:42:29;98787.91;;;-3.35;45.55
63343;BME280;49465;57.664;39.686;2023-02-20T15:45:00;98786.25;;;-3.38;45.12